Time;durP1;ratioP1;P1;durP2;ratioP2;P2;SDS_P1;SDS_P2;PMS_P1;PMS_P2;Temp;Humidity;BMP_temperature;BMP_pressure;BME280_temperature;BME280_humidity;BME280_pressure;Samples;Min_cycle;Max_cycle;Signal;HPM_P1;HPM_P2
2022/10/24 00:01:09;;;;;;;1.77;1.10;;;3.40;99.90;;;;;;4822472;29;20420;-82
2022/10/24 00:03:36;;;;;;;;;;;3.50;99.90;;;;;;4807118;29;20043;-83
2022/10/24 00:06:06;;;;;;;5.72;1.10;;;3.40;99.90;;;;;;4806446;29;19936;-82
2022/10/24 00:08:33;;;;;;;1.55;1.02;;;3.40;99.90;;;;;;4821835;29;20056;-80
2022/10/24 00:11:00;;;;;;;4.03;1.00;;;3.30;99.90;;;;;;4802657;29;20058;-81
2022/10/24 00:13:28;;;;;;;4.45;1.13;;;3.30;99.90;;;;;;4816173;29;20479;-81
2022/10/24 00:15:55;;;;;;;2.72;1.30;;;3.30;99.90;;;;;;4807349;29;20054;-81
2022/10/24 00:18:24;;;;;;;2.70;1.20;;;3.30;99.90;;;;;;4821477;29;20058;-81
2022/10/24 00:20:51;;;;;;;3.53;1.40;;;3.30;99.90;;;;;;4821916;29;20144;-81
2022/10/24 00:23:18;;;;;;;3.78;1.38;;;3.20;99.90;;;;;;4821929;29;20103;-80
2022/10/24 00:25:45;;;;;;;3.10;1.27;;;3.20;99.90;;;;;;4807016;29;20058;-79
2022/10/24 00:28:14;;;;;;;5.22;1.40;;;3.20;99.90;;;;;;4803970;29;20058;-80
2022/10/24 00:30:41;;;;;;;2.47;1.13;;;3.20;99.90;;;;;;4821762;29;20039;-81
2022/10/24 00:33:09;;;;;;;2.47;1.20;;;3.20;99.90;;;;;;4806844;29;20587;-80
2022/10/24 00:35:38;;;;;;;1.50;1.27;;;3.10;99.90;;;;;;4823654;29;20058;-82
2022/10/24 00:38:05;;;;;;;4.13;1.42;;;3.10;99.90;;;;;;4819747;29;20058;-80
2022/10/24 00:40:32;;;;;;;2.45;1.85;;;3.10;99.90;;;;;;4806401;29;20054;-81
2022/10/24 00:42:59;;;;;;;2.75;1.48;;;3.10;99.90;;;;;;4806952;29;20134;-80
2022/10/24 00:45:48;;;;;;;3.35;1.30;;;3.00;99.90;;;;;;4805073;29;20061;-79
2022/10/24 00:48:20;;;;;;;3.75;1.92;;;3.00;99.90;;;;;;4800617;29;20492;-80
2022/10/24 00:50:51;;;;;;;1.90;1.20;;;3.00;99.90;;;;;;4807271;29;20050;-81
2022/10/24 00:53:20;;;;;;;3.15;1.48;;;2.90;99.90;;;;;;4806947;29;20070;-81
2022/10/24 00:55:52;;;;;;;3.45;1.20;;;3.00;99.90;;;;;;4804278;29;20058;-81
2022/10/24 00:58:21;;;;;;;1.48;1.10;;;3.00;99.90;;;;;;4804936;29;20133;-82
2022/10/24 01:00:49;;;;;;;2.83;1.30;;;3.00;99.90;;;;;;4791753;29;20523;-81
2022/10/24 01:03:16;;;;;;;2.47;1.40;;;3.00;99.90;;;;;;4823091;29;20069;-81
2022/10/24 01:05:59;;;;;;;2.88;1.50;;;2.90;99.90;;;;;;4805584;29;20054;-81
2022/10/24 01:08:35;;;;;;;2.28;1.00;;;2.90;99.90;;;;;;4805002;29;20051;-81
2022/10/24 01:11:09;;;;;;;2.58;1.25;;;2.90;99.90;;;;;;4791299;29;20520;-85
2022/10/24 01:13:47;;;;;;;2.67;1.20;;;2.80;99.90;;;;;;4790112;29;20511;-86
2022/10/24 01:16:21;;;;;;;2.30;1.30;;;2.80;99.90;;;;;;4804136;29;20154;-81
2022/10/24 01:18:54;;;;;;;3.95;1.15;;;2.80;99.90;;;;;;4797580;29;20061;-80
2022/10/24 01:21:30;;;;;;;3.22;1.73;;;2.80;99.90;;;;;;4791379;29;20424;-81
2022/10/24 01:24:39;;;;;;;4.82;1.55;;;2.80;99.90;;;;;;4820330;29;20069;-81
2022/10/24 01:27:26;;;;;;;3.60;1.63;;;2.80;99.90;;;;;;4820582;29;20408;-81
2022/10/24 01:30:04;;;;;;;5.20;1.10;;;2.70;99.90;;;;;;4823146;29;20157;-81
2022/10/24 01:32:37;;;;;;;3.20;1.10;;;2.70;99.90;;;;;;4822506;29;20469;-82
2022/10/24 01:35:12;;;;;;;1.80;1.20;;;2.70;99.90;;;;;;4824039;29;20146;-81
2022/10/24 01:37:44;;;;;;;3.25;1.48;;;2.70;99.90;;;;;;4823363;29;20107;-81
2022/10/24 01:40:18;;;;;;;1.45;0.82;;;2.70;99.90;;;;;;4787556;29;20070;-82
2022/10/24 01:42:48;;;;;;;3.72;1.33;;;2.70;99.90;;;;;;4796327;29;20055;-82
2022/10/24 01:45:23;;;;;;;2.53;1.15;;;2.70;99.90;;;;;;4820314;29;20140;-82
2022/10/24 01:47:55;;;;;;;7.20;2.45;;;2.70;99.90;;;;;;4790185;29;20465;-82
2022/10/24 01:50:24;;;;;;;4.75;1.50;;;2.70;99.90;;;;;;4820304;29;20469;-81
2022/10/24 01:52:55;;;;;;;3.92;1.63;;;2.70;99.90;;;;;;4805563;29;20062;-81
2022/10/24 01:55:23;;;;;;;6.07;1.38;;;2.60;99.90;;;;;;4790595;29;20137;-81
2022/10/24 01:57:50;;;;;;;6.47;1.65;;;2.70;99.90;;;;;;4790557;29;20550;-81
2022/10/24 02:00:22;;;;;;;2.60;1.50;;;2.60;99.90;;;;;;4803663;29;20042;-82
2022/10/24 02:02:54;;;;;;;5.43;1.33;;;2.60;99.90;;;;;;4819711;29;20134;-82
2022/10/24 02:05:25;;;;;;;3.60;1.17;;;2.60;99.90;;;;;;4803483;29;20055;-80
2022/10/24 02:07:56;;;;;;;2.85;1.45;;;2.60;99.90;;;;;;4821640;29;20476;-80
2022/10/24 02:10:28;;;;;;;2.70;1.20;;;2.60;99.90;;;;;;4819298;29;20149;-79
2022/10/24 02:13:01;;;;;;;6.70;1.15;;;2.60;99.90;;;;;;4789080;29;20097;-80
2022/10/24 02:15:33;;;;;;;2.38;1.00;;;2.60;99.90;;;;;;4803291;29;20099;-80
2022/10/24 02:18:01;;;;;;;3.88;1.17;;;2.60;99.90;;;;;;4820428;29;20073;-79
2022/10/24 02:20:36;;;;;;;1.05;0.90;;;2.60;99.90;;;;;;4820730;29;20483;-80
2022/10/24 02:23:09;;;;;;;2.15;1.17;;;2.60;99.90;;;;;;4803647;29;20054;-80
2022/10/24 02:25:38;;;;;;;2.38;1.00;;;2.60;99.90;;;;;;4808005;29;20547;-80
2022/10/24 02:28:10;;;;;;;1.20;0.90;;;2.60;99.90;;;;;;4788718;29;20432;-80
2022/10/24 02:30:45;;;;;;;3.03;1.10;;;2.50;99.90;;;;;;4788743;29;20088;-81
2022/10/24 02:33:15;;;;;;;3.20;1.10;;;2.60;99.90;;;;;;4821613;29;20060;-81
2022/10/24 02:35:43;;;;;;;5.60;1.30;;;2.50;99.90;;;;;;4805521;29;20051;-81
2022/10/24 02:38:15;;;;;;;5.45;0.98;;;2.50;99.90;;;;;;4786783;29;20579;-82
2022/10/24 02:40:45;;;;;;;1.73;0.93;;;2.50;99.90;;;;;;4819054;29;20053;-82
2022/10/24 02:43:14;;;;;;;4.65;1.52;;;2.60;99.90;;;;;;4811264;29;20085;-81
2022/10/24 02:45:43;;;;;;;3.25;1.30;;;2.50;99.90;;;;;;4787785;29;20143;-79
2022/10/24 02:48:14;;;;;;;4.28;1.23;;;2.50;99.90;;;;;;4820944;29;20066;-79
2022/10/24 02:50:42;;;;;;;5.18;1.23;;;2.50;99.90;;;;;;4820487;29;20123;-80
2022/10/24 02:53:13;;;;;;;2.35;1.20;;;2.50;99.90;;;;;;4820957;29;20062;-79
2022/10/24 02:55:41;;;;;;;3.40;1.40;;;2.50;99.90;;;;;;4803503;29;20129;-79
2022/10/24 02:58:08;;;;;;;1.55;1.02;;;2.50;99.90;;;;;;4803204;29;20603;-79
2022/10/24 03:00:35;;;;;;;2.15;1.10;;;2.40;99.90;;;;;;4803045;29;20050;-80
2022/10/24 03:03:04;;;;;;;3.42;1.42;;;2.40;99.90;;;;;;4804388;29;20046;-79
2022/10/24 03:05:31;;;;;;;3.72;1.30;;;2.40;99.90;;;;;;4802347;29;20066;-80
2022/10/24 03:07:58;;;;;;;2.58;1.02;;;2.50;99.90;;;;;;4820768;29;20469;-80
2022/10/24 03:10:25;;;;;;;2.00;1.17;;;2.40;99.90;;;;;;4804504;29;20115;-80
2022/10/24 03:12:53;;;;;;;2.65;1.30;;;2.40;99.90;;;;;;4805019;29;20428;-80
2022/10/24 03:15:20;;;;;;;2.20;1.40;;;2.40;99.90;;;;;;4819187;29;20066;-80
2022/10/24 03:17:48;;;;;;;5.55;2.05;;;2.40;99.90;;;;;;4822003;29;20061;-81
2022/10/24 03:20:17;;;;;;;5.63;2.38;;;2.40;99.90;;;;;;4807302;29;20492;-80
2022/10/24 03:22:44;;;;;;;2.92;1.50;;;2.30;99.90;;;;;;4822536;29;20043;-80
2022/10/24 03:25:12;;;;;;;4.10;1.40;;;2.40;99.90;;;;;;4807054;29;20479;-80
2022/10/24 03:27:40;;;;;;;2.72;1.27;;;2.30;99.90;;;;;;4807882;29;20078;-81
2022/10/24 03:30:08;;;;;;;4.25;1.95;;;2.30;99.90;;;;;;4807544;29;20520;-80
2022/10/24 03:32:35;;;;;;;3.95;2.20;;;2.30;99.90;;;;;;4803680;29;20420;-80
2022/10/24 03:35:03;;;;;;;3.30;1.60;;;2.20;99.90;;;;;;4811095;29;20061;-80
2022/10/24 03:37:32;;;;;;;6.22;1.70;;;2.30;99.90;;;;;;4806008;29;20303;-80
2022/10/24 03:39:59;;;;;;;4.70;1.55;;;2.30;99.90;;;;;;4808938;29;20054;-80
2022/10/24 03:42:27;;;;;;;8.63;2.50;;;2.20;99.90;;;;;;4823070;29;20073;-79
2022/10/24 03:44:54;;;;;;;5.57;1.70;;;2.20;99.90;;;;;;4807979;29;20065;-80
2022/10/24 03:47:21;;;;;;;6.43;1.83;;;2.20;99.90;;;;;;4807792;29;20157;-80
2022/10/24 03:49:49;;;;;;;5.60;1.40;;;2.20;99.90;;;;;;4825012;29;20054;-80
2022/10/24 03:52:17;;;;;;;5.50;1.60;;;2.10;99.90;;;;;;4809454;29;20074;-85
2022/10/24 03:54:45;;;;;;;3.75;2.00;;;2.10;99.90;;;;;;4811612;29;20046;-84
2022/10/24 03:57:12;;;;;;;2.63;1.60;;;2.10;99.90;;;;;;4818693;29;20054;-85
2022/10/24 03:59:39;;;;;;;2.53;1.63;;;2.10;99.90;;;;;;4823743;29;20103;-83
2022/10/24 04:02:07;;;;;;;3.10;1.77;;;2.10;99.90;;;;;;4823178;29;20058;-84
2022/10/24 04:04:35;;;;;;;3.05;1.52;;;2.10;99.90;;;;;;4793372;29;20051;-83
2022/10/24 04:07:04;;;;;;;2.67;1.60;;;2.10;99.90;;;;;;4824493;29;20062;-82
2022/10/24 04:09:32;;;;;;;6.57;1.42;;;2.10;99.90;;;;;;4805503;29;20077;-81
2022/10/24 04:12:00;;;;;;;4.13;2.30;;;2.20;99.90;;;;;;4822642;29;20058;-80
2022/10/24 04:14:27;;;;;;;3.70;2.03;;;2.20;99.90;;;;;;4805612;29;20546;-80
2022/10/24 04:16:55;;;;;;;5.07;1.50;;;2.20;99.90;;;;;;4823956;29;20091;-79
2022/10/24 04:19:22;;;;;;;2.75;1.65;;;2.20;99.90;;;;;;4806309;29;20070;-79
2022/10/24 04:21:53;;;;;;;6.28;1.90;;;2.20;99.90;;;;;;4804400;29;20597;-84
2022/10/24 04:24:21;;;;;;;4.75;2.83;;;2.20;99.90;;;;;;4781668;29;20145;-83
2022/10/24 04:26:50;;;;;;;8.20;2.15;;;2.20;99.90;;;;;;4826462;29;20404;-84
2022/10/24 04:29:23;;;;;;;4.78;2.90;;;2.20;99.90;;;;;;4808885;29;20092;-84
2022/10/24 04:31:53;;;;;;;6.85;1.92;;;2.20;99.90;;;;;;4805691;29;20054;-83
2022/10/24 04:34:24;;;;;;;5.00;2.30;;;2.20;99.90;;;;;;4807330;29;20058;-84
2022/10/24 04:36:54;;;;;;;3.50;1.55;;;2.20;99.90;;;;;;4822073;29;20058;-82
2022/10/24 04:39:22;;;;;;;2.92;1.40;;;2.20;99.90;;;;;;4826179;29;20150;-85
2022/10/24 04:42:06;;;;;;;4.38;1.60;;;2.20;99.90;;;;;;4826654;29;20054;-86
2022/10/24 04:47:45;;;;;;;3.95;2.30;;;2.30;99.90;;;;;;5643776;24;20399;-83
2022/10/24 04:50:33;;;;;;;4.60;1.23;;;2.30;99.90;;;;;;5447702;24;21336;-83
2022/10/24 04:53:04;;;;;;;5.78;1.60;;;2.30;99.90;;;;;;4780539;29;20057;-84
2022/10/24 04:55:38;;;;;;;2.75;1.42;;;2.30;99.90;;;;;;4775986;29;20111;-86
2022/10/24 04:58:13;;;;;;;6.78;1.42;;;2.30;99.90;;;;;;4788445;29;20197;-85
2022/10/24 05:00:45;;;;;;;3.72;1.52;;;2.30;99.90;;;;;;4797258;29;20059;-78
2022/10/24 05:03:14;;;;;;;5.20;2.00;;;2.40;99.90;;;;;;4798689;29;20082;-77
2022/10/24 05:05:41;;;;;;;3.50;1.33;;;2.40;99.90;;;;;;4803428;29;20042;-77
2022/10/24 05:08:09;;;;;;;7.72;1.80;;;2.40;99.90;;;;;;4804701;29;20550;-86
2022/10/24 05:10:36;;;;;;;6.15;1.90;;;2.50;99.90;;;;;;4793769;29;20062;-85
2022/10/24 05:13:04;;;;;;;10.45;1.67;;;2.50;99.90;;;;;;4797047;29;20528;-84
2022/10/24 05:37:37;;;;;;;8.23;2.00;;;2.70;99.90;;;;;;5163725;24;20451;-83
2022/10/24 05:40:06;;;;;;;4.45;1.60;;;2.80;99.90;;;;;;4772466;30;20052;-82
2022/10/24 05:42:34;;;;;;;7.82;2.10;;;2.90;99.90;;;;;;4753132;30;20052;-84
2022/10/24 05:45:01;;;;;;;3.60;1.73;;;2.90;99.90;;;;;;4741160;30;20056;-85
2022/10/24 05:47:30;;;;;;;6.25;2.20;;;3.00;99.90;;;;;;4753972;30;20094;-84
2022/10/24 05:49:57;;;;;;;4.60;2.00;;;3.00;99.90;;;;;;4754982;30;20060;-83
2022/10/24 05:52:25;;;;;;;5.40;2.45;;;3.10;99.90;;;;;;4762146;30;20067;-83
2022/10/24 05:54:54;;;;;;;9.07;2.15;;;3.10;99.90;;;;;;4761424;30;20087;-80
2022/10/24 05:57:21;;;;;;;8.60;2.10;;;3.20;99.90;;;;;;4757767;30;20048;-81
2022/10/24 05:59:49;;;;;;;5.45;1.55;;;3.20;99.90;;;;;;4757564;30;20115;-81
2022/10/24 06:02:22;;;;;;;8.85;1.38;;;3.30;99.90;;;;;;4762993;30;20063;-84
2022/10/24 06:04:51;;;;;;;10.20;2.50;;;3.30;99.90;;;;;;4768276;30;20352;-83
2022/10/24 06:07:19;;;;;;;6.38;1.85;;;3.30;99.90;;;;;;4766809;30;20059;-82
2022/10/24 06:09:48;;;;;;;4.18;1.70;;;3.40;99.90;;;;;;4753380;30;20059;-83
2022/10/24 06:12:17;;;;;;;4.28;1.27;;;3.40;99.90;;;;;;4751067;30;20656;-82
2022/10/24 06:14:45;;;;;;;5.15;2.10;;;3.40;99.90;;;;;;4734494;30;20052;-83
2022/10/24 06:17:12;;;;;;;5.65;1.80;;;3.50;99.90;;;;;;4749399;30;20524;-83
2022/10/24 06:19:40;;;;;;;6.25;2.00;;;3.60;99.90;;;;;;4746262;30;20067;-81
2022/10/24 06:22:11;;;;;;;5.05;1.80;;;3.60;99.90;;;;;;4745394;30;20519;-83
2022/10/24 06:24:39;;;;;;;7.28;1.90;;;3.60;99.90;;;;;;4757154;30;20592;-83
2022/10/24 06:27:08;;;;;;;7.63;2.00;;;3.70;99.90;;;;;;4768628;30;20159;-83
2022/10/24 06:29:41;;;;;;;6.55;1.95;;;3.80;99.90;;;;;;4746196;30;20105;-83
2022/10/24 06:32:08;;;;;;;4.00;1.83;;;3.80;99.90;;;;;;4755813;30;20048;-83
2022/10/24 06:34:36;;;;;;;3.67;2.15;;;3.80;99.90;;;;;;4766538;30;20105;-82
2022/10/24 06:37:04;;;;;;;6.70;2.10;;;3.80;99.90;;;;;;4751289;30;20104;-83
2022/10/24 06:39:33;;;;;;;4.47;1.98;;;3.90;99.90;;;;;;4754991;30;20094;-83
2022/10/24 06:42:01;;;;;;;6.97;2.10;;;3.90;99.90;;;;;;4756242;30;20070;-85
2022/10/24 06:44:29;;;;;;;6.22;1.92;;;4.00;99.90;;;;;;4750826;30;20105;-82
2022/10/24 06:46:58;;;;;;;11.10;1.48;;;4.00;99.90;;;;;;4763400;30;20518;-83
2022/10/24 06:49:26;;;;;;;6.05;1.65;;;4.10;99.90;;;;;;4762812;30;20075;-82
2022/10/24 06:51:54;;;;;;;6.22;1.33;;;4.20;99.90;;;;;;4766815;30;20599;-83
2022/10/24 06:54:22;;;;;;;6.35;1.67;;;4.20;99.90;;;;;;4768692;30;20462;-83
2022/10/24 06:56:50;;;;;;;6.60;1.30;;;4.30;99.90;;;;;;4766402;30;20048;-82
2022/10/24 06:59:18;;;;;;;7.15;2.08;;;4.30;99.90;;;;;;4766091;30;20044;-82
2022/10/24 07:01:46;;;;;;;6.80;1.88;;;4.40;99.90;;;;;;4765451;30;20521;-83
2022/10/24 07:04:15;;;;;;;8.45;2.03;;;4.40;99.90;;;;;;4768891;30;20078;-83
2022/10/24 07:06:43;;;;;;;5.38;1.83;;;4.50;99.90;;;;;;4763450;30;20055;-84
2022/10/24 07:09:12;;;;;;;7.78;2.40;;;4.60;99.90;;;;;;4755466;30;20133;-83
2022/10/24 07:11:44;;;;;;;7.97;2.25;;;4.70;99.90;;;;;;4750520;30;20055;-85
2022/10/24 07:14:12;;;;;;;6.57;1.90;;;4.90;99.90;;;;;;4854444;24;20065;-85
2022/10/24 07:16:40;;;;;;;6.07;1.75;;;5.00;99.90;;;;;;4822941;29;20046;-85
2022/10/24 07:19:08;;;;;;;5.53;2.45;;;5.10;99.90;;;;;;4806935;29;20061;-84
2022/10/24 07:21:38;;;;;;;8.38;1.70;;;5.10;99.90;;;;;;4806214;29;20111;-82
2022/10/24 07:24:06;;;;;;;6.43;1.80;;;5.10;99.90;;;;;;4807391;29;20059;-81
2022/10/24 07:26:35;;;;;;;3.67;1.30;;;5.00;99.90;;;;;;4800013;29;20079;-78
2022/10/24 07:29:03;;;;;;;4.88;1.05;;;5.00;99.90;;;;;;4806489;29;20149;-79
2022/10/24 07:31:33;;;;;;;7.13;1.30;;;4.90;99.90;;;;;;4801302;29;20149;-79
2022/10/24 07:34:02;;;;;;;7.30;1.23;;;5.10;99.90;;;;;;4799200;29;20059;-80
2022/10/24 07:36:30;;;;;;;4.80;1.60;;;5.50;99.90;;;;;;4803265;29;20135;-79
2022/10/24 07:38:59;;;;;;;6.45;1.98;;;6.00;99.90;;;;;;4801685;29;20051;-80
2022/10/24 07:41:28;;;;;;;6.65;1.50;;;6.50;99.90;;;;;;4802136;29;20054;-79
2022/10/24 07:43:57;;;;;;;5.70;1.50;;;7.30;99.90;;;;;;4795052;29;20059;-79
2022/10/24 07:46:25;;;;;;;4.72;1.92;;;8.20;99.90;;;;;;4785144;29;20115;-83
2022/10/24 07:48:53;;;;;;;5.43;1.77;;;9.20;99.90;;;;;;4804491;29;20046;-83
2022/10/24 07:51:21;;;;;;;7.43;1.90;;;10.20;99.90;;;;;;4805643;29;20547;-82
2022/10/24 07:53:49;;;;;;;5.53;2.10;;;11.40;99.90;;;;;;4800879;29;20115;-80
2022/10/24 07:56:20;;;;;;;7.88;3.00;;;12.70;99.90;;;;;;4804418;29;20116;-82
2022/10/24 07:58:48;;;;;;;6.55;1.70;;;13.70;99.90;;;;;;4803910;29;20051;-84
2022/10/24 08:01:18;;;;;;;8.52;2.10;;;14.20;99.80;;;;;;4787682;29;20138;-85
2022/10/24 08:03:46;;;;;;;6.70;1.75;;;14.60;96.80;;;;;;4803790;29;20051;-82
2022/10/24 08:06:17;;;;;;;4.43;1.80;;;15.30;93.30;;;;;;4805762;29;20038;-83
2022/10/24 08:08:45;;;;;;;3.83;1.63;;;15.90;90.50;;;;;;4794089;29;20051;-82
2022/10/24 08:11:15;;;;;;;9.15;2.38;;;16.10;84.80;;;;;;4803485;29;20500;-83
2022/10/24 08:13:45;;;;;;;6.22;1.83;;;16.30;83.10;;;;;;4802812;29;20047;-83
2022/10/24 08:16:15;;;;;;;7.10;1.63;;;15.60;80.50;;;;;;4805322;29;20054;-81
2022/10/24 08:18:43;;;;;;;7.35;2.53;;;15.00;80.60;;;;;;4804504;29;20062;-82
2022/10/24 08:21:14;;;;;;;7.57;1.63;;;14.10;81.80;;;;;;4797120;29;20062;-84
2022/10/24 08:23:44;;;;;;;5.70;1.52;;;13.20;84.20;;;;;;4801686;29;20063;-80
2022/10/24 08:26:20;;;;;;;15.30;1.63;;;12.40;85.50;;;;;;4800396;29;20123;-81
2022/10/24 08:28:49;;;;;;;3.10;1.40;;;11.70;87.70;;;;;;4798629;29;20157;-76
2022/10/24 08:31:19;;;;;;;3.20;1.60;;;10.90;90.20;;;;;;4806333;29;20144;-76
2022/10/24 08:33:47;;;;;;;8.43;1.88;;;10.30;91.50;;;;;;4804547;29;20090;-78
2022/10/24 08:36:19;;;;;;;6.97;1.88;;;11.40;94.20;;;;;;4783694;29;20074;-77
2022/10/24 08:38:48;;;;;;;8.68;2.03;;;12.90;91.00;;;;;;4803033;29;20054;-78
2022/10/24 08:41:27;;;;;;;6.15;2.00;;;13.90;90.20;;;;;;4785040;29;20108;-81
2022/10/24 08:43:59;;;;;;;6.57;1.60;;;15.30;84.30;;;;;;4814384;29;20094;-88
2022/10/24 08:46:47;;;;;;;4.80;1.50;;;16.50;80.10;;;;;;4811301;29;20071;-88
2022/10/24 08:49:35;;;;;;;6.03;1.30;;;17.50;73.90;;;;;;4810511;29;20118;-88
2022/10/24 08:52:07;;;;;;;1.92;1.33;;;18.00;70.10;;;;;;4811787;29;20061;-88
2022/10/24 08:54:38;;;;;;;3.10;1.27;;;17.60;68.20;;;;;;4807779;29;20067;-87
2022/10/24 08:57:07;;;;;;;5.68;1.90;;;17.10;68.60;;;;;;4804663;29;20585;-88
2022/10/24 08:59:37;;;;;;;3.90;1.35;;;16.50;68.50;;;;;;4814188;29;20050;-87
2022/10/24 09:05:08;;;;;;;4.57;1.45;;;17.00;68.40;;;;;;4861761;24;20067;-82
2022/10/24 09:07:36;;;;;;;4.10;1.42;;;17.80;66.80;;;;;;4823808;29;20058;-82
2022/10/24 09:10:14;;;;;;;7.40;1.88;;;18.50;65.10;;;;;;4822028;29;20046;-83
2022/10/24 09:12:42;;;;;;;5.90;1.75;;;19.00;62.50;;;;;;4829196;29;20050;-83
2022/10/24 09:15:17;;;;;;;5.22;1.30;;;18.70;62.10;;;;;;4810347;29;20042;-83
2022/10/24 09:17:46;;;;;;;4.80;1.50;;;18.20;62.00;;;;;;4817723;29;20124;-81
2022/10/24 09:20:22;;;;;;;4.35;1.50;;;17.20;63.50;;;;;;4801218;29;20166;-81
2022/10/24 09:22:50;;;;;;;5.50;2.10;;;16.20;65.40;;;;;;4803437;29;20131;-84
2022/10/24 09:25:21;;;;;;;3.20;1.48;;;15.50;66.60;;;;;;4802211;29;20055;-82
2022/10/24 09:27:49;;;;;;;5.15;1.30;;;14.80;68.30;;;;;;4801976;29;20059;-81
2022/10/24 09:30:23;;;;;;;3.90;1.90;;;14.20;69.60;;;;;;4801217;29;20489;-80
2022/10/24 09:32:51;;;;;;;5.10;1.55;;;13.30;71.70;;;;;;4808373;29;20101;-79
2022/10/24 09:35:20;;;;;;;4.45;1.60;;;12.60;74.10;;;;;;4813854;29;20133;-83
2022/10/24 09:37:49;;;;;;;5.88;1.05;;;12.10;76.70;;;;;;4819144;29;20058;-80
2022/10/24 09:40:22;;;;;;;4.97;2.13;;;11.50;78.30;;;;;;4813897;29;20058;-80
2022/10/24 09:42:56;;;;;;;4.15;1.50;;;11.30;80.60;;;;;;4801200;29;20702;-81
2022/10/24 09:45:37;;;;;;;7.75;1.45;;;11.20;80.80;;;;;;4813954;29;20123;-82
2022/10/24 09:48:15;;;;;;;4.50;1.48;;;11.40;83.20;;;;;;4805785;29;20055;-87
2022/10/24 09:50:44;;;;;;;4.05;1.88;;;12.00;82.30;;;;;;4796492;29;20075;-85
2022/10/24 09:53:24;;;;;;;4.20;1.80;;;12.60;80.00;;;;;;4813305;29;20058;-89
2022/10/24 09:55:54;;;;;;;5.80;1.95;;;12.80;79.00;;;;;;4813586;29;20153;-87
2022/10/24 09:58:31;;;;;;;3.40;1.58;;;12.60;78.10;;;;;;4789865;29;20070;-86
2022/10/24 10:01:04;;;;;;;7.57;1.52;;;12.70;79.00;;;;;;4790092;29;20077;-83
2022/10/24 10:03:33;;;;;;;5.55;1.50;;;12.70;78.20;;;;;;4802868;29;20059;-84
2022/10/24 10:06:03;;;;;;;8.90;2.53;;;12.50;79.10;;;;;;4803010;29;20053;-84
2022/10/24 10:08:33;;;;;;;10.13;2.45;;;12.90;80.10;;;;;;4805280;29;20047;-84
2022/10/24 10:11:04;;;;;;;6.15;1.27;;;13.90;78.50;;;;;;4787772;29;20058;-83
2022/10/24 10:13:37;;;;;;;4.38;1.33;;;15.00;76.90;;;;;;4802900;29;20149;-83
2022/10/24 10:16:07;;;;;;;6.25;1.33;;;15.70;72.90;;;;;;4796491;29;20462;-85
2022/10/24 10:18:44;;;;;;;3.25;1.45;;;15.50;71.50;;;;;;4807308;29;20112;-83
2022/10/24 10:21:14;;;;;;;4.13;1.73;;;15.10;70.50;;;;;;4805186;29;20062;-84
2022/10/24 10:23:43;;;;;;;5.68;1.70;;;14.90;71.10;;;;;;4805846;29;20059;-86
2022/10/24 10:26:23;;;;;;;3.47;1.67;;;14.50;71.80;;;;;;4795231;29;20057;-84
2022/10/24 10:28:54;;;;;;;5.80;1.85;;;14.20;73.70;;;;;;4807500;29;20119;-84
2022/10/24 10:31:26;;;;;;;4.47;1.60;;;14.20;76.20;;;;;;4809024;29;20059;-82
2022/10/24 10:34:20;;;;;;;5.45;2.05;;;14.50;73.70;;;;;;4811801;29;20058;-81
2022/10/24 10:37:15;;;;;;;7.03;2.78;;;14.60;73.20;;;;;;4805102;29;21012;-81
2022/10/24 10:40:13;;;;;;;5.47;2.70;;;14.60;72.00;;;;;;4791667;29;20046;-80
2022/10/24 10:42:54;;;;;;;6.85;2.92;;;14.60;73.90;;;;;;4797087;29;20433;-80
2022/10/24 10:45:36;;;;;;;3.58;2.58;;;15.60;72.10;;;;;;4806940;29;20093;-81
2022/10/24 10:48:17;;;;;;;4.00;1.80;;;16.70;69.20;;;;;;4804783;29;20063;-81
2022/10/24 10:50:52;;;;;;;8.98;2.25;;;17.50;66.50;;;;;;4818229;29;20054;-82
2022/10/24 10:53:32;;;;;;;3.47;1.83;;;18.10;65.40;;;;;;4794777;29;20067;-81
2022/10/24 10:56:10;;;;;;;9.57;2.88;;;18.10;62.60;;;;;;4804517;29;20063;-81
2022/10/24 10:58:45;;;;;;;5.82;1.50;;;17.20;64.50;;;;;;4804546;29;20061;-81
2022/10/24 11:01:19;;;;;;;3.50;1.27;;;16.30;65.10;;;;;;4784726;29;20517;-82
2022/10/24 11:03:54;;;;;;;5.22;1.40;;;16.20;66.00;;;;;;4804981;29;20055;-82
2022/10/24 11:06:34;;;;;;;4.35;1.42;;;16.50;64.80;;;;;;4804566;29;20050;-82
2022/10/24 11:09:21;;;;;;;6.22;2.00;;;16.70;64.80;;;;;;4816354;29;20431;-82
2022/10/24 11:11:55;;;;;;;3.25;1.88;;;17.00;66.20;;;;;;4806159;29;20058;-83
2022/10/24 11:14:32;;;;;;;6.45;1.83;;;17.20;64.00;;;;;;4790243;29;20059;-82
2022/10/24 11:17:07;;;;;;;5.32;1.80;;;16.90;63.50;;;;;;4811462;29;20058;-81
2022/10/24 11:19:45;;;;;;;4.70;1.58;;;16.60;64.30;;;;;;4825717;29;20065;-83
2022/10/24 11:22:19;;;;;;;7.13;1.65;;;17.10;63.70;;;;;;4808493;29;20080;-82
2022/10/24 11:24:55;;;;;;;10.77;3.40;;;18.30;62.00;;;;;;4813238;29;20050;-76
2022/10/24 11:27:29;;;;;;;5.55;1.88;;;19.10;60.00;;;;;;4816491;29;20537;-79
2022/10/24 11:30:03;;;;;;;3.65;1.85;;;19.50;59.20;;;;;;4798417;29;20055;-78
2022/10/24 11:32:41;;;;;;;3.88;1.77;;;19.70;58.80;;;;;;4813140;29;20078;-79
2022/10/24 11:35:22;;;;;;;3.50;1.50;;;19.70;58.00;;;;;;4805584;29;20102;-81
2022/10/24 11:37:53;;;;;;;5.38;1.90;;;19.40;57.70;;;;;;4812957;29;20062;-83
2022/10/24 11:40:22;;;;;;;6.63;2.00;;;19.10;58.70;;;;;;4808637;29;20046;-84
2022/10/24 11:42:56;;;;;;;7.78;2.13;;;18.70;59.30;;;;;;4797800;29;20079;-83
2022/10/24 11:45:27;;;;;;;3.92;1.55;;;18.20;59.70;;;;;;4801319;29;20054;-83
2022/10/24 11:48:04;;;;;;;7.95;1.48;;;18.00;60.50;;;;;;4805448;29;20546;-82
2022/10/24 11:50:39;;;;;;;2.95;1.60;;;17.90;59.80;;;;;;4793880;29;20051;-82
2022/10/24 11:53:21;;;;;;;4.80;1.92;;;17.90;60.10;;;;;;4803574;29;20111;-79
2022/10/24 11:55:53;;;;;;;4.20;1.98;;;18.60;59.50;;;;;;4801954;29;20241;-78
2022/10/24 11:58:25;;;;;;;5.55;1.75;;;18.60;58.50;;;;;;4803359;29;20472;-79
2022/10/24 12:01:12;;;;;;;9.18;2.45;;;18.30;59.70;;;;;;4808988;29;20496;-79
2022/10/24 12:04:02;;;;;;;8.73;3.53;;;18.80;59.90;;;;;;4821943;29;20059;-79
2022/10/24 12:06:57;;;;;;;9.50;3.20;;;19.00;58.90;;;;;;4814569;29;20107;-82
2022/10/24 12:09:51;;;;;;;7.13;1.80;;;19.40;58.40;;;;;;4808996;29;20112;-82
2022/10/24 12:12:36;;;;;;;4.90;1.58;;;19.00;58.20;;;;;;4805483;29;20141;-83
2022/10/24 12:15:19;;;;;;;3.28;1.58;;;17.60;60.50;;;;;;4805385;29;20051;-82
2022/10/24 12:18:01;;;;;;;5.10;1.40;;;16.20;62.50;;;;;;4805020;29;20549;-83
2022/10/24 12:20:30;;;;;;;8.02;1.58;;;15.10;66.30;;;;;;4806135;29;20086;-84
2022/10/24 12:23:00;;;;;;;8.88;1.88;;;14.50;67.80;;;;;;4808220;29;20062;-83
2022/10/24 12:25:31;;;;;;;5.25;1.88;;;14.10;68.30;;;;;;4805621;29;20055;-83
2022/10/24 12:28:00;;;;;;;4.75;1.40;;;14.20;70.20;;;;;;4805910;29;20141;-83
2022/10/24 12:30:29;;;;;;;2.53;1.52;;;14.90;70.50;;;;;;4806873;29;20049;-81
2022/10/24 12:33:07;;;;;;;3.28;1.15;;;15.20;68.00;;;;;;4806128;29;20066;-82
2022/10/24 12:35:56;;;;;;;2.35;1.08;;;14.60;69.00;;;;;;4805771;29;20062;-80
2022/10/24 12:39:06;;;;;;;3.90;1.70;;;13.80;70.70;;;;;;4806749;29;20069;-81
2022/10/24 12:41:45;;;;;;;4.47;1.30;;;12.90;73.30;;;;;;4749603;30;20102;-81
2022/10/24 12:44:49;;;;;;;4.07;1.42;;;12.70;74.50;;;;;;4755279;30;20159;-83
2022/10/24 12:47:33;;;;;;;;;;;12.60;75.70;;;;;;4705554;30;20071;-83
2022/10/24 12:50:15;;;;;;;;;;;12.50;75.60;;;;;;4752241;30;19930;-84
2022/10/24 12:53:05;;;;;;;3.50;1.35;;;12.30;75.00;;;;;;4780131;29;20306;-82
2022/10/24 12:56:05;;;;;;;2.35;1.33;;;12.00;76.40;;;;;;4806885;29;20062;-84
2022/10/24 12:58:36;;;;;;;8.82;2.78;;;12.30;77.20;;;;;;4811110;29;20077;-83
2022/10/24 13:01:06;;;;;;;2.80;2.20;;;12.20;77.00;;;;;;4818248;29;20524;-83
2022/10/24 13:04:08;;;;;;;5.25;2.20;;;11.60;77.40;;;;;;4809676;29;20063;-83
2022/10/24 13:06:44;;;;;;;4.43;1.60;;;11.10;79.20;;;;;;4806705;29;20055;-84
2022/10/24 13:09:26;;;;;;;4.90;2.10;;;10.70;81.50;;;;;;4806211;29;20538;-83
2022/10/24 13:12:07;;;;;;;8.30;1.80;;;10.40;84.00;;;;;;4809499;29;20090;-84
2022/10/24 13:14:55;;;;;;;6.80;1.70;;;10.20;84.50;;;;;;4814410;29;20515;-81
2022/10/24 13:17:31;;;;;;;5.63;1.50;;;10.00;84.80;;;;;;4800831;29;20058;-80
2022/10/24 13:20:15;;;;;;;2.63;1.13;;;10.00;85.60;;;;;;4811458;29;20062;-82
2022/10/24 13:22:42;;;;;;;1.92;0.80;;;9.80;85.60;;;;;;4820735;29;20146;-78
2022/10/24 13:25:33;;;;;;;2.80;1.35;;;9.70;86.70;;;;;;4792159;29;20051;-77
2022/10/24 13:28:42;;;;;;;4.32;1.40;;;9.50;89.10;;;;;;4809932;29;20050;-79
2022/10/24 13:31:46;;;;;;;12.32;3.03;;;9.30;89.10;;;;;;4801876;29;20046;-80
2022/10/24 13:34:23;;;;;;;4.65;2.47;;;9.10;89.80;;;;;;4801136;29;20083;-80
2022/10/24 13:36:57;;;;;;;4.50;1.77;;;8.90;89.10;;;;;;4798617;29;20436;-77
2022/10/24 13:39:29;;;;;;;2.08;1.40;;;8.80;90.50;;;;;;4798838;29;20063;-77
2022/10/24 13:42:03;;;;;;;5.05;0.90;;;8.70;90.50;;;;;;4803964;29;20492;-82
2022/10/24 13:44:41;;;;;;;4.78;0.90;;;8.70;90.80;;;;;;4801584;29;20047;-82
2022/10/24 13:47:18;;;;;;;2.55;1.17;;;8.70;91.00;;;;;;4802783;29;20189;-82
2022/10/24 13:50:03;;;;;;;5.72;1.40;;;8.60;91.20;;;;;;4803444;29;20058;-79